Baykal'sk, Russia
Current Conditions -  °F | °C
As of 9:00 AM on Sunday 26 Oct 2014 (Local Time) from UIII Reporting Station
Clear Clear  
Wind Chill: 24°   Ceiling: Unl
Heat Index: 32°   Visibility: 6mi
Dew Point: 18°   Wind: 9mph
Humidity: 55%   Direction: 100°E
Pressure: 30.12"   Gusts: NA
Location:  51.55°N, 104.4°E
Report Text: UIII 260100Z 10004MPS CAVOK M00/M08 Q1020 NOSIG RMK QFE722/096312920260
Loading
Personal Weather Stations






























Interactive Weather Map
Tropical Storm Tracking
New forecast layout! Learn more

10-Day Weather Forecast

Advertisements
Track Severe Weather on mobile